Time;durP1;ratioP1;P1;durP2;ratioP2;P2;SDS_P1;SDS_P2;PMS_P1;PMS_P2;Temp;Humidity;BMP_temperature;BMP_pressure;BME280_temperature;BME280_humidity;BME280_pressure;Samples;Min_cycle;Max_cycle;Signal;HPM_P1;HPM_P2
2022/05/06 00:00:18;;;;;;;12.97;9.97;;;;;;;5.40;82.04;100216.48;1729814;80;21140;-59
2022/05/06 00:02:46;;;;;;;18.73;10.50;;;;;;;5.45;82.10;100214.67;1737783;81;21496;-60
2022/05/06 00:05:13;;;;;;;18.10;11.13;;;;;;;5.49;82.13;100217.63;1712177;82;20966;-60
2022/05/06 00:07:40;;;;;;;21.75;11.50;;;;;;;5.53;82.14;100211.50;1744536;81;21044;-60
2022/05/06 00:10:09;;;;;;;13.62;9.50;;;;;;;5.56;82.07;100210.14;1741440;81;21597;-60
2022/05/06 00:12:36;;;;;;;11.45;9.80;;;;;;;5.55;81.90;100211.03;1734270;81;21107;-60
2022/05/06 00:15:06;;;;;;;14.98;10.13;;;;;;;5.46;81.69;100211.22;1737703;81;21235;-60
2022/05/06 00:17:34;;;;;;;19.67;9.85;;;;;;;5.41;81.79;100207.86;1734179;81;21186;-60
2022/05/06 00:20:00;;;;;;;;;;;;;;;5.38;81.75;100210.05;1739451;81;21618;-60
2022/05/06 00:22:27;;;;;;;11.45;8.98;;;;;;;5.32;81.79;100208.00;1742486;81;20149;-60
2022/05/06 00:24:53;;;;;;;9.60;8.23;;;;;;;5.23;81.71;100206.43;1731222;80;21005;-60
2022/05/06 00:27:21;;;;;;;11.57;8.70;;;;;;;5.14;81.68;100198.39;1745342;81;22914;-60
2022/05/06 00:29:47;;;;;;;;;;;;;;;5.02;81.81;100194.73;1732359;81;21060;-60
2022/05/06 00:32:14;;;;;;;9.10;6.50;;;;;;;4.93;81.75;100194.89;1728230;81;20547;-60
2022/05/06 00:34:41;;;;;;;7.57;6.77;;;;;;;4.82;81.69;100192.92;1741238;81;21550;-60
2022/05/06 00:37:08;;;;;;;12.65;9.33;;;;;;;4.78;81.90;100188.21;1729034;81;21017;-60
2022/05/06 00:39:35;;;;;;;14.00;10.00;;;;;;;4.77;82.03;100185.66;1728786;81;21437;-60
2022/05/06 00:42:02;;;;;;;12.47;9.33;;;;;;;4.77;82.00;100188.25;1740485;81;21056;-59
2022/05/06 00:44:29;;;;;;;10.93;7.55;;;;;;;4.78;82.12;100184.77;1744767;80;21005;-60
2022/05/06 00:46:59;;;;;;;17.30;9.85;;;;;;;4.74;82.07;100180.55;1719466;82;21114;-59
2022/05/06 00:49:26;;;;;;;14.23;10.63;;;;;;;4.74;82.16;100185.72;1674702;84;21134;-61
2022/05/06 00:51:53;;;;;;;9.18;5.95;;;;;;;4.74;82.18;100185.27;1734948;81;21476;-61
2022/05/06 00:54:22;;;;;;;;;;;;;;;4.60;81.77;100182.91;1745955;81;21124;-61
2022/05/06 00:56:50;;;;;;;10.82;8.30;;;;;;;4.46;81.73;100184.84;1740657;81;20139;-61
2022/05/06 00:59:17;;;;;;;12.65;9.98;;;;;;;4.40;82.12;100181.06;1736689;80;21001;-60
2022/05/06 01:01:45;;;;;;;14.00;9.33;;;;;;;4.43;82.31;100181.02;1735656;80;21001;-60
2022/05/06 01:04:16;;;;;;;9.23;8.33;;;;;;;4.42;82.41;100184.45;1743409;81;21048;-61
2022/05/06 01:06:42;;;;;;;13.68;10.40;;;;;;;4.40;82.41;100178.48;1740707;81;21141;-61
2022/05/06 01:09:15;;;;;;;10.82;9.35;;;;;;;4.40;82.47;100183.65;1744253;80;21036;-60
2022/05/06 01:11:43;;;;;;;8.73;6.42;;;;;;;4.39;82.45;100179.34;1740473;80;21048;-61
2022/05/06 01:14:10;;;;;;;10.32;6.28;;;;;;;4.28;82.01;100188.97;1738288;80;21582;-61
2022/05/06 01:16:37;;;;;;;12.95;6.78;;;;;;;4.08;81.62;100177.17;1741479;81;21528;-61
2022/05/06 01:19:05;;;;;;;11.15;6.95;;;;;;;3.89;81.58;100181.72;1736803;81;20941;-60
2022/05/06 01:21:39;;;;;;;6.70;6.03;;;;;;;3.73;81.70;100181.08;1745732;81;21002;-61
2022/05/06 01:24:06;;;;;;;14.68;6.10;;;;;;;3.63;81.93;100182.05;1733164;81;21097;-60
2022/05/06 01:26:57;;;;;;;6.85;6.12;;;;;;;3.57;82.02;100180.84;1740306;81;21033;-59
2022/05/06 01:29:24;;;;;;;11.50;8.00;;;;;;;3.49;82.05;100189.09;1651689;84;22293;-61
2022/05/06 01:31:52;;;;;;;17.15;7.28;;;;;;;3.38;82.03;100185.78;1671547;84;21095;-62
2022/05/06 01:34:18;;;;;;;10.70;6.83;;;;;;;3.30;82.14;100188.43;1662227;84;21073;-60
2022/05/06 01:36:52;;;;;;;10.67;7.93;;;;;;;3.25;82.17;100190.20;1638017;85;21546;-60
2022/05/06 01:39:23;;;;;;;11.88;7.85;;;;;;;3.21;82.29;100188.09;1664040;84;21286;-61
2022/05/06 01:41:53;;;;;;;11.38;8.35;;;;;;;3.18;82.45;100189.41;1659548;83;21095;-61
2022/05/06 01:44:25;;;;;;;9.00;7.85;;;;;;;3.16;82.49;100193.72;1658052;83;21084;-61
2022/05/06 01:46:55;;;;;;;11.93;8.73;;;;;;;3.11;82.35;100198.09;1665485;83;21127;-61
2022/05/06 01:49:27;;;;;;;7.97;7.17;;;;;;;3.01;82.27;100195.17;1660041;83;21137;-61
2022/05/06 01:51:56;;;;;;;13.62;8.85;;;;;;;2.95;82.31;100201.67;1653547;84;21128;-62
2022/05/06 01:54:23;;;;;;;12.25;9.55;;;;;;;2.90;82.49;100192.23;1650451;84;21098;-61
2022/05/06 01:56:50;;;;;;;14.13;10.00;;;;;;;2.91;82.74;100201.70;1658191;84;21158;-61
2022/05/06 01:59:16;;;;;;;17.40;12.07;;;;;;;2.92;82.90;100199.98;1665135;84;21567;-60
2022/05/06 02:01:43;;;;;;;15.03;10.58;;;;;;;2.95;83.02;100201.67;1667304;83;21643;-61
2022/05/06 02:06:54;;;;;;;12.47;9.55;;;;;;;2.95;83.06;100200.39;1726253;81;22555;-62
2022/05/06 02:09:21;;;;;;;17.35;13.25;;;;;;;2.93;83.06;100189.22;1735985;81;21507;-61
2022/05/06 02:11:48;;;;;;;23.13;12.23;;;;;;;2.96;83.38;100190.48;1738895;81;21074;-61
2022/05/06 02:14:16;;;;;;;17.95;11.88;;;;;;;3.04;83.47;100191.27;1734863;81;21708;-61
2022/05/06 02:16:43;;;;;;;14.13;10.93;;;;;;;3.10;83.54;100191.20;1697031;82;21177;-61
2022/05/06 02:19:09;;;;;;;14.13;10.13;;;;;;;3.11;83.42;100186.05;1711920;82;21138;-61
2022/05/06 02:21:36;;;;;;;15.90;9.80;;;;;;;3.09;83.24;100183.05;1716407;82;21065;-61
2022/05/06 02:24:04;;;;;;;10.07;9.00;;;;;;;2.94;82.83;100187.05;1712224;82;21794;-62
2022/05/06 02:26:31;;;;;;;18.98;11.45;;;;;;;2.94;82.83;100187.05;1692230;82;21500;-61
2022/05/06 02:28:58;;;;;;;16.20;11.63;;;;;;;2.94;83.23;100192.20;1735486;81;21092;-61
2022/05/06 02:34:16;;;;;;;15.70;11.50;;;;;;;;;;1721729;81;21044;-61
2022/05/06 02:36:38;;;;;;;11.40;9.55;;;;;;;3.14;83.67;100198.06;1704767;82;21617;-61
2022/05/06 02:39:05;;;;;;;9.40;8.38;;;;;;;3.16;83.33;100195.02;1714671;82;21135;-62
2022/05/06 02:41:31;;;;;;;9.40;7.50;;;;;;;3.07;83.02;100197.25;1698047;82;21131;-62
2022/05/06 02:43:58;;;;;;;8.77;7.10;;;;;;;2.98;82.75;100195.20;1705648;82;21539;-61
2022/05/06 02:46:25;;;;;;;8.53;7.60;;;;;;;2.81;82.54;100201.34;1669771;84;21179;-61
2022/05/06 02:48:51;;;;;;;10.93;7.70;;;;;;;2.65;82.50;100193.30;1734075;80;20985;-61
2022/05/06 02:51:18;;;;;;;13.63;8.23;;;;;;;2.53;82.55;100201.98;1737526;80;22447;-61
2022/05/06 02:53:45;;;;;;;15.13;8.87;;;;;;;2.47;82.69;100202.03;1741654;81;21092;-61
2022/05/06 02:56:12;;;;;;;10.05;7.33;;;;;;;2.42;82.90;100209.78;1735177;81;21491;-60
2022/05/06 02:59:00;;;;;;;12.65;7.53;;;;;;;2.39;82.94;100207.23;1668603;83;20987;-61
2022/05/06 03:01:28;;;;;;;9.20;8.23;;;;;;;2.40;83.13;100219.23;1661536;84;21141;-61
2022/05/06 03:03:54;;;;;;;9.08;8.15;;;;;;;2.42;83.19;100208.94;1666180;84;20932;-61
2022/05/06 03:06:21;;;;;;;16.20;8.60;;;;;;;2.45;83.25;100204.61;1657293;83;21176;-61
2022/05/06 03:08:48;;;;;;;9.17;8.27;;;;;;;2.51;83.25;100203.71;1654327;84;21509;-61
2022/05/06 03:11:15;;;;;;;8.40;7.60;;;;;;;2.55;83.25;100208.00;1648906;84;21513;-61
2022/05/06 03:13:44;;;;;;;8.58;7.67;;;;;;;2.60;83.29;100200.21;1660892;83;21658;-62
2022/05/06 03:16:09;;;;;;;8.63;7.10;;;;;;;2.63;83.21;100208.80;1646141;84;21062;-61
2022/05/06 03:18:36;;;;;;;9.60;8.25;;;;;;;2.64;83.08;100212.23;1636805;84;21046;-62
2022/05/06 03:21:04;;;;;;;12.90;7.05;;;;;;;2.68;83.18;100217.77;1650133;84;21159;-61
2022/05/06 03:23:30;;;;;;;;;;;;;;;2.72;83.08;100215.61;1651231;84;21503;-61
2022/05/06 03:25:57;;;;;;;9.20;7.83;;;;;;;2.96;83.65;100213.69;1661188;84;20149;-61
2022/05/06 03:28:23;;;;;;;14.30;7.40;;;;;;;3.45;83.93;100213.25;1661488;84;21061;-61
2022/05/06 03:30:50;;;;;;;8.23;7.13;;;;;;;3.97;83.59;100210.05;1641031;83;21834;-61
2022/05/06 03:33:18;;;;;;;6.90;6.20;;;;;;;4.50;83.35;100211.06;1661682;84;22282;-62
2022/05/06 03:35:45;;;;;;;8.85;6.97;;;;;;;5.03;82.93;100210.66;1668249;84;21045;-62
2022/05/06 03:38:11;;;;;;;8.75;6.97;;;;;;;5.55;82.57;100217.52;1666220;84;20993;-61
2022/05/06 03:40:38;;;;;;;7.30;6.27;;;;;;;6.01;82.19;100212.73;1653811;84;21207;-61
2022/05/06 03:43:06;;;;;;;9.25;6.50;;;;;;;6.57;82.25;100216.73;1650167;84;21060;-61
2022/05/06 03:45:38;;;;;;;8.85;6.45;;;;;;;7.15;82.01;100209.69;1649894;84;21279;-62
2022/05/06 03:48:05;;;;;;;7.08;5.00;;;;;;;7.90;82.24;100211.14;1649521;84;21030;-62
2022/05/06 03:53:16;;;;;;;8.05;5.62;;;;;;;9.17;81.29;100214.59;1663501;83;21022;-61
2022/05/06 03:55:44;;;;;;;9.45;6.00;;;;;;;9.95;81.96;100208.39;1675345;83;21103;-60
2022/05/06 03:58:10;;;;;;;7.30;5.15;;;;;;;10.91;82.68;100206.42;1647307;84;21167;-61
2022/05/06 04:00:37;;;;;;;6.97;5.47;;;;;;;11.72;81.25;100206.50;1654141;84;21653;-61
2022/05/06 04:03:04;;;;;;;7.77;5.53;;;;;;;12.18;80.18;100210.52;1660619;84;22477;-61
2022/05/06 04:05:32;;;;;;;9.50;5.75;;;;;;;12.63;81.02;100214.55;1657259;84;21205;-61
2022/05/06 04:07:59;;;;;;;8.40;6.03;;;;;;;13.26;80.73;100212.79;1660264;84;21779;-61
2022/05/06 04:10:26;;;;;;;6.37;5.22;;;;;;;13.49;79.83;100216.85;1647750;84;21152;-62
2022/05/06 04:12:53;;;;;;;6.28;5.20;;;;;;;13.81;78.73;100213.04;1669821;84;21121;-61
2022/05/06 04:15:21;;;;;;;;;;;;;;;13.99;78.01;100217.30;1649433;84;21023;-62
2022/05/06 04:17:47;;;;;;;8.08;5.35;;;;;;;14.32;77.15;100219.03;1639108;84;20240;-61
2022/05/06 04:25:44;;;;;;;10.35;5.20;;;;;;;15.77;77.84;100203.72;1658563;84;20956;-63
2022/05/06 04:28:11;;;;;;;6.22;5.12;;;;;;;16.06;76.57;100200.11;1661053;84;21161;-63
2022/05/06 04:30:38;;;;;;;10.50;5.65;;;;;;;16.23;75.75;100210.91;1641264;83;21134;-64
2022/05/06 04:33:04;;;;;;;11.18;5.55;;;;;;;16.60;76.25;100208.55;1653390;83;21724;-64
2022/05/06 04:35:31;;;;;;;;;;;;;;;16.82;75.31;100208.52;1670247;84;21169;-63
2022/05/06 04:37:57;;;;;;;;;;;;;;;16.89;73.79;100217.73;1662741;84;20570;-64
2022/05/06 04:40:24;;;;;;;7.33;5.10;;;;;;;16.91;73.51;100221.09;1632834;85;20198;-62
2022/05/06 04:42:51;;;;;;;7.00;5.08;;;;;;;17.02;73.94;100221.23;1633188;85;21601;-65
2022/05/06 04:45:18;;;;;;;9.38;5.30;;;;;;;17.32;73.77;100218.83;1623433;86;21038;-64
2022/05/06 04:47:45;;;;;;;5.97;4.78;;;;;;;17.58;73.13;100213.92;1638370;84;21142;-64
2022/05/06 04:50:12;;;;;;;6.95;5.17;;;;;;;17.91;73.09;100220.50;1628050;85;21649;-64
2022/05/06 04:52:39;;;;;;;8.08;5.50;;;;;;;18.23;72.55;100222.22;1621839;86;21573;-65
2022/05/06 04:55:07;;;;;;;9.88;5.67;;;;;;;18.54;71.95;100214.69;1615546;85;21797;-64
2022/05/06 04:57:34;;;;;;;7.95;5.62;;;;;;;18.71;71.86;100218.78;1622852;85;21201;-65
2022/05/06 05:00:02;;;;;;;7.55;5.33;;;;;;;18.87;71.97;100221.99;1619017;84;21157;-64
2022/05/06 05:02:30;;;;;;;12.28;5.55;;;;;;;19.34;71.82;100221.56;1637959;84;21067;-63
2022/05/06 05:04:58;;;;;;;8.55;5.72;;;;;;;19.77;71.34;100220.94;1631026;84;21536;-63
2022/05/06 05:07:26;;;;;;;6.78;4.75;;;;;;;20.25;71.10;100223.37;1627833;86;21610;-63
2022/05/06 05:09:53;;;;;;;7.30;5.85;;;;;;;20.64;70.53;100223.81;1638051;85;21582;-63
2022/05/06 05:12:24;;;;;;;9.63;5.25;;;;;;;21.02;70.79;100222.45;1635339;86;21517;-64
2022/05/06 05:14:52;;;;;;;5.70;4.53;;;;;;;21.54;69.94;100227.41;1633346;86;20983;-62
2022/05/06 05:17:21;;;;;;;8.13;5.35;;;;;;;21.93;69.09;100225.42;1635133;85;21082;-63
2022/05/06 05:19:54;;;;;;;6.28;4.65;;;;;;;22.24;69.12;100231.62;1637776;85;21065;-64
2022/05/06 05:22:21;;;;;;;6.47;5.10;;;;;;;22.59;68.71;100230.30;1622922;85;20962;-63
2022/05/06 05:24:49;;;;;;;7.80;5.30;;;;;;;22.34;67.44;100239.12;1633278;85;21091;-64
2022/05/06 05:27:16;;;;;;;8.43;4.65;;;;;;;22.64;67.22;100235.55;1655923;85;21117;-64
2022/05/06 05:29:44;;;;;;;8.18;5.22;;;;;;;22.40;66.03;100239.91;1633970;84;21201;-64
2022/05/06 05:32:17;;;;;;;10.98;5.00;;;;;;;22.41;66.85;100240.77;1612501;85;21028;-64
2022/05/06 05:34:42;;;;;;;7.22;4.45;;;;;;;22.83;66.79;100237.41;1641571;85;21128;-62
2022/05/06 05:37:11;;;;;;;7.20;5.10;;;;;;;22.89;65.44;100234.18;1648958;85;21340;-64
2022/05/06 05:39:38;;;;;;;8.25;5.37;;;;;;;22.89;65.54;100231.52;1616330;85;21209;-64
2022/05/06 05:42:06;;;;;;;8.53;5.10;;;;;;;23.16;65.02;100231.33;1638889;83;21109;-63
2022/05/06 05:50:08;;;;;;;6.95;4.60;;;;;;;24.35;64.38;100237.39;1664036;84;22544;-64
2022/05/06 05:52:35;;;;;;;6.70;4.58;;;;;;;24.38;63.47;100234.92;1645302;84;20993;-65
2022/05/06 05:55:02;;;;;;;5.87;4.45;;;;;;;24.29;62.04;100233.98;1634902;84;21113;-65
2022/05/06 05:57:29;;;;;;;8.15;4.35;;;;;;;24.01;62.17;100232.30;1652365;84;21504;-65
2022/05/06 05:59:56;;;;;;;7.00;4.35;;;;;;;24.15;61.21;100227.81;1660599;84;20978;-65
2022/05/06 06:02:23;;;;;;;7.17;4.47;;;;;;;23.85;60.80;100235.08;1658694;84;21114;-65
2022/05/06 06:04:49;;;;;;;7.65;4.75;;;;;;;24.04;60.86;100232.01;1652408;84;21070;-65
2022/05/06 06:07:18;;;;;;;8.43;4.87;;;;;;;23.69;60.08;100233.48;1657065;84;21144;-69
2022/05/06 06:09:45;;;;;;;6.47;4.47;;;;;;;23.84;60.02;100229.41;1653723;83;21569;-65
2022/05/06 06:12:12;;;;;;;6.30;4.25;;;;;;;23.89;59.10;100232.98;1654471;84;21168;-66
2022/05/06 06:14:39;;;;;;;8.10;5.20;;;;;;;23.58;58.43;100237.65;1662782;84;21591;-65
2022/05/06 06:17:06;;;;;;;9.68;4.95;;;;;;;23.42;58.97;100231.59;1665191;83;21077;-65
2022/05/06 06:19:33;;;;;;;7.80;4.37;;;;;;;23.67;58.83;100232.81;1665397;84;21260;-65
2022/05/06 06:22:00;;;;;;;5.87;3.98;;;;;;;23.67;57.69;100238.14;1647095;84;21586;-65
2022/05/06 06:24:28;;;;;;;6.62;3.80;;;;;;;23.50;57.08;100237.05;1641599;84;21101;-63
2022/05/06 06:26:55;;;;;;;7.17;5.35;;;;;;;23.49;57.78;100234.52;1655603;84;22148;-66
2022/05/06 06:29:22;;;;;;;5.85;3.85;;;;;;;23.58;57.05;100234.98;1657373;83;21049;-64
2022/05/06 06:31:48;;;;;;;5.85;4.08;;;;;;;23.56;56.97;100235.64;1651863;84;21186;-66
2022/05/06 06:34:15;;;;;;;6.87;4.12;;;;;;;23.72;57.27;100234.55;1645479;83;21135;-65
2022/05/06 06:36:42;;;;;;;6.85;4.40;;;;;;;23.71;56.22;100236.88;1680457;84;21054;-63
2022/05/06 06:39:08;;;;;;;8.08;3.37;;;;;;;23.71;56.39;100243.55;1643718;84;21199;-63
2022/05/06 06:41:38;;;;;;;10.75;7.67;;;;;;;23.34;54.23;100245.62;1644496;83;21165;-63
2022/05/06 06:44:05;;;;;;;5.60;3.30;;;;;;;22.78;55.26;100244.96;1644329;84;21646;-63
2022/05/06 06:46:33;;;;;;;4.22;2.30;;;;;;;22.09;53.66;100237.24;1654144;83;21504;-62
2022/05/06 06:49:00;;;;;;;4.15;2.20;;;;;;;21.18;51.50;100253.41;1653309;83;20931;-64
2022/05/06 06:51:27;;;;;;;3.75;2.60;;;;;;;20.58;52.08;100249.48;1646138;83;21149;-63
2022/05/06 06:53:53;;;;;;;3.30;2.20;;;;;;;20.13;52.84;100248.18;1633737;85;20978;-64
2022/05/06 06:56:22;;;;;;;4.47;2.58;;;;;;;19.80;53.01;100251.20;1640027;84;21240;-64
2022/05/06 06:58:51;;;;;;;3.22;2.50;;;;;;;19.43;52.03;100248.66;1655273;84;21572;-64
2022/05/06 07:01:21;;;;;;;3.22;1.70;;;;;;;18.72;51.71;100253.04;1664567;83;22012;-64
2022/05/06 07:03:47;;;;;;;4.67;2.17;;;;;;;18.84;52.80;100256.62;1670726;83;21203;-64
2022/05/06 07:11:55;;;;;;;4.42;2.87;;;;;;;17.68;51.99;100259.05;1622080;84;21218;-65
2022/05/06 07:14:23;;;;;;;6.10;2.80;;;;;;;17.41;52.26;100265.23;1641241;86;21190;-65
2022/05/06 07:16:51;;;;;;;4.62;2.52;;;;;;;17.10;52.77;100262.95;1619438;86;21186;-62
2022/05/06 07:19:18;;;;;;;4.00;2.67;;;;;;;16.78;52.91;100264.10;1650736;84;21591;-62
2022/05/06 07:21:45;;;;;;;;;;;;;;;16.14;53.22;100270.77;1658950;84;21105;-63
2022/05/06 07:24:13;;;;;;;3.62;2.35;;;;;;;15.60;53.98;100275.74;1657872;84;20143;-65
2022/05/06 07:26:40;;;;;;;3.77;2.60;;;;;;;15.28;54.28;100271.91;1657937;84;21225;-63
2022/05/06 07:29:09;;;;;;;3.30;2.35;;;;;;;15.09;54.62;100277.84;1658585;84;21118;-62
2022/05/06 07:31:36;;;;;;;6.87;4.35;;;;;;;14.78;54.88;100282.20;1657068;83;21544;-66
2022/05/06 07:34:02;;;;;;;3.15;2.62;;;;;;;14.50;55.50;100281.53;1663734;84;21097;-63
2022/05/06 07:36:29;;;;;;;5.87;3.35;;;;;;;14.62;55.80;100286.61;1659231;83;21006;-63
2022/05/06 07:38:57;;;;;;;2.87;2.17;;;;;;;14.85;56.17;100283.57;1644410;84;21198;-63
2022/05/06 07:41:25;;;;;;;4.22;2.90;;;;;;;14.85;55.56;100289.30;1674463;84;21136;-63
2022/05/06 07:43:52;;;;;;;5.10;2.90;;;;;;;14.79;56.15;100283.92;1658640;83;21056;-63
2022/05/06 07:46:19;;;;;;;;;;;;;;;14.75;56.00;100285.00;1661638;84;21074;-63
2022/05/06 07:48:46;;;;;;;2.77;2.25;;;;;;;14.85;56.75;100284.88;1651701;83;20219;-62
2022/05/06 07:51:13;;;;;;;;;;;;;;;14.94;56.43;100280.41;1659832;83;21171;-63
2022/05/06 07:53:40;;;;;;;5.17;2.60;;;;;;;14.91;56.66;100288.48;1628925;86;21150;-63
2022/05/06 07:56:06;;;;;;;2.85;2.45;;;;;;;14.63;56.63;100283.06;1629914;85;21610;-62
2022/05/06 07:58:33;;;;;;;4.30;2.70;;;;;;;14.61;56.78;100291.02;1635993;85;21125;-62
2022/05/06 08:01:00;;;;;;;6.17;2.95;;;;;;;14.60;56.90;100295.06;1635374;85;21013;-62
2022/05/06 08:06:13;;;;;;;5.53;3.25;;;;;;;14.59;57.53;100292.91;1648607;85;21994;-62
2022/05/06 08:08:39;;;;;;;;;;;;;;;14.65;57.57;100286.47;1639216;86;21059;-61
2022/05/06 08:11:06;;;;;;;7.08;4.15;;;;;;;14.81;57.69;100287.76;1623330;84;20142;-62
2022/05/06 08:13:34;;;;;;;4.22;3.22;;;;;;;14.85;57.74;100291.45;1621522;85;21142;-62
2022/05/06 08:16:00;;;;;;;5.05;3.92;;;;;;;14.90;57.78;100285.48;1649829;85;21051;-62
2022/05/06 08:18:28;;;;;;;5.97;4.13;;;;;;;14.78;57.73;100290.09;1608969;87;21587;-61
2022/05/06 08:20:55;;;;;;;4.67;3.80;;;;;;;14.58;57.99;100282.47;1644659;84;21401;-62
2022/05/06 08:23:23;;;;;;;6.62;3.42;;;;;;;14.60;58.63;100285.87;1659360;84;21113;-63
2022/05/06 08:25:52;;;;;;;4.87;3.77;;;;;;;14.66;58.65;100280.27;1653756;84;21030;-62
2022/05/06 08:28:20;;;;;;;5.90;3.92;;;;;;;14.69;59.09;100290.14;1658849;83;21060;-61
2022/05/06 08:30:48;;;;;;;4.22;3.27;;;;;;;15.14;59.39;100279.75;1665980;84;21101;-63
2022/05/06 08:33:15;;;;;;;4.47;3.52;;;;;;;15.66;59.31;100281.51;1655565;83;20919;-62
2022/05/06 08:35:43;;;;;;;6.33;4.33;;;;;;;15.75;58.65;100284.09;1643227;84;21029;-61
2022/05/06 08:38:10;;;;;;;5.10;3.40;;;;;;;15.89;58.60;100290.69;1645466;84;21118;-62
2022/05/06 08:40:36;;;;;;;;;;;;;;;16.04;58.83;100293.33;1653049;84;21485;-62
2022/05/06 08:43:05;;;;;;;5.35;3.40;;;;;;;16.00;58.30;100295.78;1642299;83;21115;-63
2022/05/06 08:51:04;;;;;;;5.22;3.87;;;;;;;16.01;58.55;100286.94;1626364;86;21197;-61
2022/05/06 08:53:36;;;;;;;3.35;3.00;;;;;;;16.27;59.34;100293.23;1635625;85;21072;-62
2022/05/06 08:56:04;;;;;;;6.72;3.15;;;;;;;16.04;57.02;100299.44;1636792;86;21410;-61
2022/05/06 08:58:41;;;;;;;;;;;;;;;15.64;58.15;100293.06;1634209;85;21266;-62
2022/05/06 09:01:11;;;;;;;4.12;2.92;;;;;;;15.64;58.48;100304.91;1628662;86;20126;-61
2022/05/06 09:03:40;;;;;;;4.25;2.92;;;;;;;15.73;58.81;100299.59;1638691;85;21763;-62
2022/05/06 09:06:20;;;;;;;3.62;2.58;;;;;;;16.37;58.73;100297.48;1633478;86;21918;-63
2022/05/06 09:08:49;;;;;;;5.45;3.87;;;;;;;16.41;58.07;100297.64;1630480;85;21484;-64
2022/05/06 09:16:39;;;;;;;3.87;2.70;;;;;;;16.38;58.35;100303.95;1618217;85;21192;-62
2022/05/06 09:16:47;;;;;;;3.30;2.83;;;;;;;16.67;58.64;100301.30;1600094;86;21184;-63
2022/05/06 09:19:25;;;;;;;2.87;2.33;;;;;;;16.96;58.89;100306.05;1624806;86;21601;-62
2022/05/06 09:22:17;;;;;;;4.75;2.70;;;;;;;16.97;57.67;100305.09;1619081;86;22462;-62
2022/05/06 09:24:50;;;;;;;2.77;2.25;;;;;;;16.87;58.18;100307.49;1661224;84;21188;-62
2022/05/06 09:27:24;;;;;;;4.12;2.83;;;;;;;16.63;57.79;100294.52;1631099;85;21042;-62
2022/05/06 09:29:50;;;;;;;5.10;2.65;;;;;;;16.31;57.49;100307.45;1624870;85;21061;-64
2022/05/06 09:32:28;;;;;;;8.75;2.30;;;;;;;16.74;58.97;100302.11;1633970;86;21088;-63
2022/05/06 09:34:59;;;;;;;4.20;2.00;;;;;;;17.14;58.03;100307.51;1628823;85;21220;-63
2022/05/06 09:37:34;;;;;;;3.12;2.10;;;;;;;17.12;57.50;100309.88;1609792;86;21082;-62
2022/05/06 09:40:12;;;;;;;2.30;2.10;;;;;;;16.40;54.85;100313.94;1644699;84;21013;-62
2022/05/06 09:42:55;;;;;;;4.95;1.98;;;;;;;15.87;56.36;100316.26;1608892;86;21132;-62
2022/05/06 09:45:39;;;;;;;4.10;2.80;;;;;;;15.74;56.62;100319.27;1614730;86;21535;-62
2022/05/06 09:48:11;;;;;;;3.60;2.75;;;;;;;15.40;56.94;100326.91;1597488;87;21153;-62
2022/05/06 09:50:46;;;;;;;3.95;2.55;;;;;;;15.27;57.56;100324.16;1606277;87;21799;-62
2022/05/06 09:53:16;;;;;;;6.03;2.52;;;;;;;15.62;58.00;100330.47;1603888;87;21134;-62
2022/05/06 09:55:46;;;;;;;3.60;2.05;;;;;;;15.75;57.60;100322.27;1596079;87;21265;-63
2022/05/06 09:58:14;;;;;;;11.63;3.25;;;;;;;15.98;57.81;100322.68;1644013;85;21505;-62
2022/05/06 10:00:41;;;;;;;5.28;2.87;;;;;;;16.04;57.65;100327.57;1647504;85;21554;-61
2022/05/06 10:03:09;;;;;;;4.90;2.42;;;;;;;16.04;57.45;100324.94;1606416;86;21057;-63
2022/05/06 10:05:37;;;;;;;3.37;2.12;;;;;;;16.05;57.52;100326.66;1623302;87;21146;-60
2022/05/06 10:08:15;;;;;;;4.47;2.20;;;;;;;16.04;57.28;100319.67;1651701;85;21171;-61
2022/05/06 10:10:50;;;;;;;6.20;2.22;;;;;;;16.13;57.97;100324.38;1637482;84;21021;-64
2022/05/06 10:13:22;;;;;;;3.70;2.50;;;;;;;16.30;57.75;100321.58;1648371;85;21123;-62
2022/05/06 10:15:53;;;;;;;3.72;1.80;;;;;;;16.08;56.47;100327.30;1646019;85;21095;-62
2022/05/06 10:18:41;;;;;;;2.92;2.02;;;;;;;15.74;56.95;100331.11;1666810;83;21508;-63
2022/05/06 10:21:15;;;;;;;3.25;2.15;;;;;;;15.72;57.56;100326.88;1656504;84;21165;-65
2022/05/06 10:23:51;;;;;;;3.25;2.50;;;;;;;16.00;57.53;100330.03;1665556;84;21715;-63
2022/05/06 10:26:44;;;;;;;4.33;2.55;;;;;;;16.08;57.51;100330.41;1664872;84;22425;-63
2022/05/06 10:32:48;;;;;;;4.95;2.45;;;;;;;16.08;57.64;100334.37;1652118;83;21064;-63
2022/05/06 10:35:15;;;;;;;3.72;2.77;;;;;;;16.09;57.33;100331.63;1621521;86;21138;-63
2022/05/06 10:37:47;;;;;;;;;;;;;;;16.03;57.49;100328.52;1634304;85;21147;-63
2022/05/06 10:40:31;;;;;;;5.03;2.45;;;;;;;16.24;57.62;100327.20;1628773;85;21785;-62
2022/05/06 10:42:59;;;;;;;4.92;3.08;;;;;;;16.47;57.66;100330.23;1625789;85;21709;-63
2022/05/06 10:45:33;;;;;;;5.12;2.37;;;;;;;16.69;57.43;100329.27;1630682;85;21099;-61
2022/05/06 10:48:01;;;;;;;4.35;2.85;;;;;;;16.80;57.15;100331.71;1631733;84;21109;-62
2022/05/06 10:50:38;;;;;;;2.80;2.15;;;;;;;16.87;57.30;100333.03;1627896;85;21724;-62
2022/05/06 10:53:05;;;;;;;4.70;2.60;;;;;;;16.85;55.82;100333.59;1629906;85;21525;-61
2022/05/06 10:55:32;;;;;;;2.72;2.00;;;;;;;16.39;56.89;100337.77;1619541;85;21193;-62
2022/05/06 10:58:03;;;;;;;3.90;2.42;;;;;;;16.46;56.53;100339.06;1607217;87;21113;-60
2022/05/06 11:00:33;;;;;;;4.97;2.00;;;;;;;16.14;56.74;100333.98;1597881;87;21685;-63
2022/05/06 11:03:00;;;;;;;2.47;2.08;;;;;;;16.23;57.42;100336.06;1591028;87;21081;-63
2022/05/06 11:05:30;;;;;;;3.87;2.02;;;;;;;16.28;56.87;100333.99;1608457;86;22205;-61
2022/05/06 11:07:59;;;;;;;5.75;2.17;;;;;;;16.31;56.70;100335.59;1613540;85;20993;-63
2022/05/06 11:10:30;;;;;;;16.77;4.75;;;;;;;16.61;57.62;100325.39;1608055;86;21205;-66
2022/05/06 11:12:58;;;;;;;7.35;2.55;;;;;;;16.94;57.40;100327.72;1661122;83;21903;-64
2022/05/06 11:15:32;;;;;;;5.85;2.58;;;;;;;17.36;57.11;100324.55;1635044;85;21543;-63
2022/05/06 11:18:04;;;;;;;4.12;2.65;;;;;;;17.35;56.56;100324.20;1583750;87;21700;-63
2022/05/06 11:20:36;;;;;;;4.65;2.27;;;;;;;17.55;57.03;100321.55;1649849;85;21218;-63
2022/05/06 11:23:09;;;;;;;3.90;1.90;;;;;;;17.74;56.61;100313.24;1630438;85;21171;-63
2022/05/06 11:25:47;;;;;;;4.72;3.27;;;;;;;17.62;55.93;100312.28;1635070;84;21049;-64
2022/05/06 11:28:24;;;;;;;3.45;2.02;;;;;;;17.43;56.48;100315.30;1649665;85;21477;-63
2022/05/06 11:30:53;;;;;;;;;;;;;;;17.42;55.88;100319.73;1615766;85;21826;-63
2022/05/06 11:33:24;;;;;;;5.08;2.20;;;;;;;17.42;56.24;100322.83;1622802;86;20133;-63
2022/05/06 11:36:02;;;;;;;2.20;1.85;;;;;;;17.67;56.51;100311.02;1636925;85;21055;-63
2022/05/06 11:38:37;;;;;;;3.98;2.87;;;;;;;18.01;56.45;100313.17;1621040;86;22316;-63
2022/05/06 11:41:11;;;;;;;;;;;;;;;18.22;56.19;100310.85;1637732;85;21069;-63
2022/05/06 11:43:39;;;;;;;2.58;1.80;;;;;;;18.54;56.28;100309.44;1627499;84;21153;-65
2022/05/06 11:48:52;;;;;;;3.27;1.87;;;;;;;18.43;55.56;100302.75;1643829;84;21151;-63
2022/05/06 11:51:26;;;;;;;5.47;2.12;;;;;;;18.34;55.56;100309.98;1644319;84;21884;-64
2022/05/06 11:53:54;;;;;;;8.40;2.50;;;;;;;18.28;55.24;100301.16;1635947;84;20993;-64
2022/05/06 11:56:26;;;;;;;8.23;1.95;;;;;;;18.05;55.02;100307.58;1646972;83;21724;-63
2022/05/06 11:58:56;;;;;;;2.95;1.98;;;;;;;17.96;54.60;100307.38;1662536;84;21176;-63
2022/05/06 12:01:29;;;;;;;4.28;1.80;;;;;;;17.93;55.19;100308.44;1652783;84;21302;-63
2022/05/06 12:04:02;;;;;;;7.30;2.00;;;;;;;18.18;55.14;100309.39;1663367;84;21059;-65
2022/05/06 12:06:30;;;;;;;3.55;1.92;;;;;;;18.63;55.43;100303.12;1658777;84;21678;-63
2022/05/06 12:09:16;;;;;;;2.40;1.80;;;;;;;18.81;54.62;100303.14;1653759;84;21729;-63
2022/05/06 12:11:45;;;;;;;4.03;2.02;;;;;;;18.71;54.32;100299.45;1662737;84;21115;-63
2022/05/06 12:14:17;;;;;;;5.33;3.75;;;;;;;18.54;54.13;100291.37;1652597;83;21094;-63
2022/05/06 12:16:58;;;;;;;4.70;2.90;;;;;;;18.39;54.57;100294.64;1662448;83;21105;-62
2022/05/06 12:19:46;;;;;;;14.03;2.80;;;;;;;18.59;54.49;100294.55;1666173;83;21025;-63